createdAt,value
2023-05-02T00:00:51.471Z,13.30
2023-05-02T00:03:18.441Z,13.30
2023-05-02T00:05:45.333Z,13.30
2023-05-02T00:08:12.480Z,13.40
2023-05-02T00:10:39.254Z,13.40
2023-05-02T00:13:06.779Z,13.40
2023-05-02T00:15:33.406Z,13.40
2023-05-02T00:18:00.370Z,13.40
2023-05-02T00:20:27.108Z,13.50
2023-05-02T00:22:55.312Z,13.50
2023-05-02T00:25:21.920Z,13.50
2023-05-02T00:27:50.855Z,13.40
2023-05-02T00:30:18.391Z,13.40
2023-05-02T00:32:45.475Z,13.40
2023-05-02T00:35:12.186Z,13.50
2023-05-02T00:37:39.214Z,13.40
2023-05-02T00:40:07.881Z,13.40
2023-05-02T00:42:36.147Z,13.40
2023-05-02T00:45:06.221Z,13.40
2023-05-02T00:47:33.292Z,13.40
2023-05-02T00:50:01.216Z,13.30
2023-05-02T00:52:29.022Z,13.30
2023-05-02T00:54:56.458Z,13.30
2023-05-02T00:57:23.236Z,13.30
2023-05-02T00:59:50.977Z,13.20
2023-05-02T01:02:17.586Z,13.30
2023-05-02T01:04:59.004Z,13.30
2023-05-02T01:07:43.493Z,13.30
2023-05-02T01:10:26.659Z,13.20
2023-05-02T01:13:24.494Z,13.20
2023-05-02T01:15:53.187Z,13.20
2023-05-02T01:18:30.770Z,13.20
2023-05-02T01:21:03.550Z,13.20
2023-05-02T01:23:57.164Z,13.20
2023-05-02T01:27:05.460Z,13.20
2023-05-02T01:29:33.153Z,13.10
2023-05-02T01:32:02.930Z,13.20
2023-05-02T01:34:31.289Z,13.10
2023-05-02T01:36:59.196Z,13.10
2023-05-02T01:39:26.982Z,13.10
2023-05-02T01:41:57.940Z,13.10
2023-05-02T01:44:25.439Z,13.00
2023-05-02T01:46:54.860Z,13.00
2023-05-02T01:49:24.220Z,13.00
2023-05-02T01:51:52.266Z,13.00
2023-05-02T01:54:21.666Z,12.90
2023-05-02T01:56:49.372Z,12.90
2023-05-02T01:59:20.197Z,12.90
2023-05-02T02:01:48.507Z,12.90
2023-05-02T02:04:16.523Z,12.90
2023-05-02T02:06:48.341Z,12.80
2023-05-02T02:09:15.452Z,12.80
2023-05-02T02:11:57.625Z,12.80
2023-05-02T02:14:33.308Z,12.90
2023-05-02T02:17:02.354Z,12.80
2023-05-02T02:19:30.776Z,12.80
2023-05-02T02:21:58.704Z,12.80
2023-05-02T02:24:26.735Z,12.80
2023-05-02T02:26:53.544Z,12.80
2023-05-02T02:29:20.304Z,12.80
2023-05-02T02:31:46.881Z,12.80
2023-05-02T02:34:13.503Z,12.70
2023-05-02T02:36:47.854Z,12.80
2023-05-02T02:39:45.265Z,12.70
2023-05-02T02:42:25.464Z,12.70
2023-05-02T02:45:17.103Z,12.70
2023-05-02T02:48:02.372Z,12.70
2023-05-02T02:50:47.734Z,12.70
2023-05-02T02:53:20.576Z,12.70
2023-05-02T02:56:02.934Z,12.70
2023-05-02T02:59:00.394Z,12.70
2023-05-02T03:01:30.863Z,12.70
2023-05-02T03:03:57.916Z,12.60
2023-05-02T03:06:25.718Z,12.70
2023-05-02T03:08:52.442Z,12.60
2023-05-02T03:11:19.106Z,12.60
2023-05-02T03:13:45.803Z,12.60
2023-05-02T03:16:34.416Z,12.60
2023-05-02T03:19:01.187Z,12.60
2023-05-02T03:21:27.781Z,12.60
2023-05-02T03:23:54.404Z,12.60
2023-05-02T03:26:21.246Z,12.60
2023-05-02T03:28:48.770Z,12.60
2023-05-02T03:31:15.573Z,12.60
2023-05-02T03:33:42.312Z,12.60
2023-05-02T03:36:08.964Z,12.60
2023-05-02T03:38:35.619Z,12.50
2023-05-02T03:41:03.065Z,12.50
2023-05-02T03:43:30.346Z,12.60
2023-05-02T03:45:57.054Z,12.60
2023-05-02T03:48:23.856Z,12.70
2023-05-02T03:50:50.954Z,12.50
2023-05-02T03:53:17.726Z,12.50
2023-05-02T03:55:44.537Z,12.50
2023-05-02T03:58:11.836Z,12.50
2023-05-02T04:00:38.652Z,12.50
2023-05-02T04:03:05.578Z,12.50
2023-05-02T04:05:32.171Z,12.40
2023-05-02T04:07:58.807Z,12.40
2023-05-02T04:10:25.463Z,12.30
2023-05-02T04:12:52.093Z,12.30
2023-05-02T04:15:18.769Z,12.30
2023-05-02T04:17:46.690Z,12.30
2023-05-02T04:20:13.663Z,12.30
2023-05-02T04:22:40.766Z,12.40
2023-05-02T04:25:07.702Z,12.40
2023-05-02T04:27:34.365Z,12.40
2023-05-02T04:30:01.389Z,12.40
2023-05-02T04:32:28.428Z,12.40
2023-05-02T04:34:55.762Z,12.30
2023-05-02T04:37:22.497Z,12.40
2023-05-02T04:39:49.114Z,12.30
2023-05-02T04:42:15.731Z,12.40
2023-05-02T04:44:42.317Z,12.40
2023-05-02T04:47:08.941Z,12.40
2023-05-02T04:49:35.636Z,12.40
2023-05-02T04:52:02.333Z,12.40
2023-05-02T04:54:29.112Z,12.40
2023-05-02T04:56:55.757Z,12.40
2023-05-02T04:59:22.694Z,12.40
2023-05-02T05:01:49.332Z,12.40
2023-05-02T05:04:16.086Z,12.40
2023-05-02T05:06:43.398Z,12.40
2023-05-02T05:09:10.171Z,12.40
2023-05-02T05:11:38.514Z,12.40
2023-05-02T05:14:05.346Z,12.40
2023-05-02T05:16:32.071Z,12.40
2023-05-02T05:18:58.784Z,12.50
2023-05-02T05:21:25.436Z,12.50
2023-05-02T05:23:52.065Z,12.50
2023-05-02T05:26:18.863Z,12.50
2023-05-02T05:28:45.546Z,12.50
2023-05-02T05:31:16.042Z,12.50
2023-05-02T05:33:44.085Z,12.50
2023-05-02T05:36:14.366Z,12.50
2023-05-02T05:38:41.454Z,12.50
2023-05-02T05:41:08.256Z,12.50
2023-05-02T05:43:37.287Z,12.50
2023-05-02T05:46:05.312Z,12.50
2023-05-02T05:48:31.929Z,12.60
2023-05-02T05:50:58.550Z,12.60
2023-05-02T05:53:25.650Z,12.60
2023-05-02T05:55:52.274Z,12.60
2023-05-02T05:58:18.859Z,12.60
2023-05-02T06:00:45.540Z,12.60
2023-05-02T06:03:12.370Z,12.60
2023-05-02T06:05:39.140Z,12.60
2023-05-02T06:08:05.817Z,12.60
2023-05-02T06:10:32.680Z,12.60
2023-05-02T06:12:59.357Z,12.70
2023-05-02T06:15:25.982Z,12.70
2023-05-02T06:17:52.767Z,12.70
2023-05-02T06:20:19.503Z,12.70
2023-05-02T06:22:46.374Z,12.70
2023-05-02T06:25:13.035Z,12.80
2023-05-02T06:27:39.724Z,12.80
2023-05-02T06:30:07.078Z,12.80
2023-05-02T06:32:33.719Z,12.80
2023-05-02T06:35:00.334Z,12.80
2023-05-02T06:37:26.956Z,12.80
2023-05-02T06:39:53.610Z,12.80
2023-05-02T06:42:20.404Z,12.80
2023-05-02T06:44:47.073Z,12.80
2023-05-02T06:47:13.873Z,12.80
2023-05-02T06:49:40.588Z,12.80
2023-05-02T06:52:07.261Z,12.80
2023-05-02T06:54:33.959Z,12.70
2023-05-02T06:57:02.029Z,12.70
2023-05-02T06:59:28.698Z,12.60
2023-05-02T07:01:55.396Z,12.50
2023-05-02T07:04:22.346Z,12.40
2023-05-02T07:06:49.145Z,12.40
2023-05-02T07:09:16.865Z,12.40
2023-05-02T07:11:43.511Z,12.40
2023-05-02T07:14:10.151Z,12.40
2023-05-02T07:16:36.924Z,12.40
2023-05-02T07:19:06.604Z,12.50
2023-05-02T07:21:33.596Z,12.50
2023-05-02T07:24:00.783Z,12.50
2023-05-02T07:26:28.455Z,12.50
2023-05-02T07:28:55.056Z,12.50
2023-05-02T07:31:21.689Z,12.50
2023-05-02T07:33:48.351Z,12.40
2023-05-02T07:36:14.967Z,12.30
2023-05-02T07:38:41.553Z,12.30
2023-05-02T07:41:08.254Z,12.20
2023-05-02T07:43:34.969Z,12.20
2023-05-02T07:46:05.586Z,12.20
2023-05-02T07:48:33.625Z,12.20
2023-05-02T07:51:07.779Z,12.20
2023-05-02T07:53:34.642Z,12.20
2023-05-02T07:56:06.697Z,12.10
2023-05-02T07:58:33.382Z,12.10
2023-05-02T08:01:00.041Z,12.20
2023-05-02T08:03:28.194Z,12.10
2023-05-02T08:05:55.016Z,12.10
2023-05-02T08:08:21.831Z,12.20
2023-05-02T08:10:50.372Z,12.20
2023-05-02T08:13:17.681Z,12.30
2023-05-02T08:15:44.603Z,12.40
2023-05-02T08:18:11.471Z,12.50
2023-05-02T08:20:38.196Z,12.60
2023-05-02T08:23:04.945Z,12.70
2023-05-02T08:25:31.689Z,12.80
2023-05-02T08:27:58.399Z,12.90
2023-05-02T08:30:25.352Z,12.90
2023-05-02T08:32:52.064Z,13.00
2023-05-02T08:35:18.866Z,13.10
2023-05-02T08:37:45.462Z,13.20
2023-05-02T08:40:12.955Z,13.30
2023-05-02T08:42:43.871Z,13.40
2023-05-02T08:45:14.204Z,13.50
2023-05-02T08:47:44.680Z,13.40
2023-05-02T08:50:11.987Z,13.40
2023-05-02T08:52:39.132Z,13.40
2023-05-02T08:55:07.404Z,13.50
2023-05-02T08:57:34.139Z,13.50
2023-05-02T09:00:01.073Z,13.60
2023-05-02T09:03:02.476Z,13.50
2023-05-02T09:05:33.472Z,13.60
2023-05-02T09:08:00.517Z,13.50
2023-05-02T09:10:28.981Z,13.50
2023-05-02T09:12:55.900Z,13.50
2023-05-02T09:15:22.672Z,13.60
2023-05-02T09:17:49.399Z,13.60
2023-05-02T09:20:16.798Z,13.60
2023-05-02T09:22:51.118Z,13.70
2023-05-02T09:25:19.337Z,13.70
2023-05-02T09:27:53.145Z,13.80
2023-05-02T09:30:22.221Z,13.80
2023-05-02T09:32:53.912Z,13.80
2023-05-02T09:35:23.950Z,13.80
2023-05-02T09:37:55.746Z,13.90
2023-05-02T09:40:23.247Z,14.00
2023-05-02T09:42:50.403Z,13.80
2023-05-02T09:45:21.821Z,13.80
2023-05-02T09:47:49.237Z,13.90
2023-05-02T09:50:36.057Z,14.00
2023-05-02T09:53:07.640Z,14.10
2023-05-02T09:55:34.449Z,14.10
2023-05-02T09:58:01.456Z,14.10
2023-05-02T10:00:45.040Z,14.00
2023-05-02T10:03:18.456Z,13.80
2023-05-02T10:05:47.957Z,13.80
2023-05-02T10:08:18.500Z,13.90
2023-05-02T10:10:50.154Z,14.00
2023-05-02T10:13:19.913Z,14.10
2023-05-02T10:15:50.151Z,14.10
2023-05-02T10:18:25.221Z,14.10
2023-05-02T10:21:01.561Z,14.20
2023-05-02T10:23:31.757Z,14.30
2023-05-02T10:26:00.115Z,14.50
2023-05-02T10:28:28.118Z,14.60
2023-05-02T10:30:55.308Z,14.60
2023-05-02T10:33:23.419Z,14.70
2023-05-02T10:35:50.446Z,14.80
2023-05-02T10:38:23.397Z,14.90
2023-05-02T10:40:58.907Z,14.90
2023-05-02T10:43:28.068Z,15.00
2023-05-02T10:45:55.121Z,15.20
2023-05-02T10:48:24.922Z,15.40
2023-05-02T10:50:53.496Z,15.40
2023-05-02T10:53:34.669Z,15.60
2023-05-02T10:56:08.391Z,15.60
2023-05-02T10:58:35.188Z,15.50
2023-05-02T11:01:29.746Z,15.50
2023-05-02T11:04:02.348Z,15.40
2023-05-02T11:06:34.913Z,15.40
2023-05-02T11:09:16.662Z,15.40
2023-05-02T11:11:43.624Z,15.60
2023-05-02T11:14:12.274Z,15.90
2023-05-02T11:16:58.847Z,15.90
2023-05-02T11:19:31.207Z,15.90
2023-05-02T11:22:26.951Z,16.00
2023-05-02T11:24:54.247Z,16.00
2023-05-02T11:27:30.052Z,16.20
2023-05-02T11:29:57.549Z,16.20
2023-05-02T11:32:27.222Z,16.30
2023-05-02T11:34:55.567Z,16.40
2023-05-02T11:37:22.255Z,16.30
2023-05-02T11:39:49.018Z,16.30
2023-05-02T11:42:32.152Z,16.30
2023-05-02T11:45:01.127Z,16.10
2023-05-02T11:47:29.600Z,15.90
2023-05-02T11:49:57.509Z,15.90
2023-05-02T11:52:24.754Z,15.70
2023-05-02T11:54:55.866Z,15.60
2023-05-02T11:57:23.146Z,15.60
2023-05-02T11:59:53.859Z,15.60
2023-05-02T12:02:35.065Z,15.70
2023-05-02T12:05:03.886Z,15.70
2023-05-02T12:07:40.455Z,15.80
2023-05-02T12:10:08.688Z,15.80
2023-05-02T12:12:36.776Z,15.90
2023-05-02T12:15:07.849Z,15.80
2023-05-02T12:17:37.647Z,15.50
2023-05-02T12:20:06.184Z,15.30
2023-05-02T12:22:33.319Z,15.10
2023-05-02T12:25:00.786Z,15.10
2023-05-02T12:27:27.765Z,15.10
2023-05-02T12:29:54.952Z,15.10
2023-05-02T12:32:33.324Z,15.00
2023-05-02T12:35:01.885Z,14.90
2023-05-02T12:37:29.060Z,14.70
2023-05-02T12:39:56.738Z,14.70
2023-05-02T12:42:25.400Z,14.70
2023-05-02T12:44:53.185Z,14.70
2023-05-02T12:47:22.493Z,14.70
2023-05-02T12:49:57.423Z,14.60
2023-05-02T12:52:50.425Z,14.60
2023-05-02T12:55:25.672Z,14.30
2023-05-02T12:58:01.119Z,14.10
2023-05-02T13:00:28.147Z,13.80
2023-05-02T13:02:54.884Z,13.60
2023-05-02T13:05:21.742Z,13.70
2023-05-02T13:07:48.355Z,13.70
2023-05-02T13:10:17.788Z,13.60
2023-05-02T13:12:48.069Z,13.40
2023-05-02T13:15:15.330Z,13.30
2023-05-02T13:17:42.256Z,13.10
2023-05-02T13:20:09.637Z,12.90
2023-05-02T13:22:37.403Z,12.70
2023-05-02T13:25:05.478Z,12.70
2023-05-02T13:27:34.169Z,12.60
2023-05-02T13:30:07.981Z,12.60
2023-05-02T13:32:35.939Z,12.70
2023-05-02T13:35:03.713Z,12.80
2023-05-02T13:37:30.644Z,12.90
2023-05-02T13:39:57.445Z,13.10
2023-05-02T13:42:24.818Z,13.30
2023-05-02T13:44:51.814Z,13.60
2023-05-02T13:47:18.670Z,14.00
2023-05-02T13:49:45.945Z,14.40
2023-05-02T13:52:12.614Z,14.70
2023-05-02T13:54:39.455Z,15.20
2023-05-02T13:57:06.469Z,15.50
2023-05-02T13:59:33.114Z,15.60
2023-05-02T14:01:59.843Z,15.70
2023-05-02T14:04:26.643Z,15.80
2023-05-02T14:06:53.458Z,16.00
2023-05-02T14:09:20.924Z,15.90
2023-05-02T14:11:48.614Z,15.80
2023-05-02T14:14:15.493Z,15.80
2023-05-02T14:16:42.515Z,16.00
2023-05-02T14:19:12.133Z,16.20
2023-05-02T14:21:38.888Z,16.90
2023-05-02T14:24:06.418Z,17.30
2023-05-02T14:26:33.235Z,17.30
2023-05-02T14:29:00.706Z,17.20
2023-05-02T14:31:27.713Z,17.30
2023-05-02T14:33:54.488Z,17.50
2023-05-02T14:36:21.182Z,17.50
2023-05-02T14:38:47.867Z,17.60
2023-05-02T14:41:14.734Z,17.40
2023-05-02T14:43:41.390Z,17.60
2023-05-02T14:46:07.986Z,17.80
2023-05-02T14:48:34.666Z,17.70
2023-05-02T14:51:04.049Z,17.70
2023-05-02T14:53:30.777Z,17.70
2023-05-02T14:55:57.634Z,18.20
2023-05-02T14:58:24.326Z,18.10
2023-05-02T15:00:51.278Z,18.10
2023-05-02T15:03:18.076Z,18.30
2023-05-02T15:05:45.059Z,18.20
2023-05-02T15:08:11.702Z,18.30
2023-05-02T15:10:39.287Z,18.30
2023-05-02T15:13:06.641Z,18.50
2023-05-02T15:15:33.404Z,18.50
2023-05-02T15:18:00.158Z,18.60
2023-05-02T15:20:26.936Z,18.80
2023-05-02T15:22:53.613Z,19.10
2023-05-02T15:25:20.260Z,19.20
2023-05-02T15:27:47.017Z,19.40
2023-05-02T15:30:15.907Z,19.50
2023-05-02T15:32:43.764Z,19.60
2023-05-02T15:35:11.556Z,19.20
2023-05-02T15:37:38.168Z,19.20
2023-05-02T15:40:06.646Z,18.90
2023-05-02T15:42:36.867Z,18.70
2023-05-02T15:45:04.168Z,18.90
2023-05-02T15:47:30.959Z,19.20
2023-05-02T15:50:00.978Z,19.60
2023-05-02T15:52:27.751Z,19.40
2023-05-02T15:54:55.964Z,19.40
2023-05-02T15:57:22.918Z,19.30
2023-05-02T15:59:49.910Z,19.30
2023-05-02T16:02:16.537Z,19.40
2023-05-02T16:04:43.218Z,19.80
2023-05-02T16:07:10.983Z,19.90
2023-05-02T16:09:38.690Z,19.90
2023-05-02T16:12:06.924Z,20.20
2023-05-02T16:14:34.690Z,20.70
2023-05-02T16:17:01.547Z,20.90
2023-05-02T16:19:28.307Z,20.50
2023-05-02T16:21:54.979Z,20.10
2023-05-02T16:24:21.643Z,19.40
2023-05-02T16:26:48.295Z,19.40
2023-05-02T16:29:14.957Z,19.80
2023-05-02T16:31:44.798Z,19.50
2023-05-02T16:34:11.670Z,19.20
2023-05-02T16:36:38.341Z,19.00
2023-05-02T16:39:05.057Z,18.90
2023-05-02T16:41:34.174Z,19.20
2023-05-02T16:44:00.824Z,19.20
2023-05-02T16:46:27.617Z,18.90
2023-05-02T16:48:54.467Z,18.90
2023-05-02T16:51:21.399Z,18.90
2023-05-02T16:53:48.088Z,18.90
2023-05-02T16:56:14.733Z,19.10
2023-05-02T16:58:41.529Z,19.10
2023-05-02T17:01:08.431Z,19.00
2023-05-02T17:03:35.172Z,18.70
2023-05-02T17:06:02.163Z,18.40
2023-05-02T17:08:29.208Z,18.80
2023-05-02T17:10:56.126Z,19.00
2023-05-02T17:13:22.952Z,18.80
2023-05-02T17:15:49.784Z,18.60
2023-05-02T17:18:16.618Z,18.10
2023-05-02T17:20:43.432Z,17.80
2023-05-02T17:23:10.433Z,17.60
2023-05-02T17:25:38.208Z,17.40
2023-05-02T17:28:05.959Z,17.30
2023-05-02T17:30:33.566Z,16.90
2023-05-02T17:33:00.462Z,16.60
2023-05-02T17:35:27.312Z,16.40
2023-05-02T17:37:55.187Z,16.30
2023-05-02T17:40:21.917Z,16.10
2023-05-02T17:42:48.933Z,16.00
2023-05-02T17:45:16.604Z,15.90
2023-05-02T17:47:43.250Z,15.80
2023-05-02T17:50:10.333Z,15.70
2023-05-02T17:52:37.243Z,15.60
2023-05-02T17:55:04.221Z,15.40
2023-05-02T17:57:31.095Z,15.20
2023-05-02T17:59:59.647Z,15.20
2023-05-02T18:02:27.469Z,15.30
2023-05-02T18:04:54.770Z,15.50
2023-05-02T18:07:24.221Z,15.50
2023-05-02T18:09:51.849Z,15.60
2023-05-02T18:12:19.119Z,15.60
2023-05-02T18:14:45.910Z,15.50
2023-05-02T18:17:12.997Z,15.60
2023-05-02T18:19:39.883Z,15.60
2023-05-02T18:22:07.217Z,15.60
2023-05-02T18:24:33.921Z,15.60
2023-05-02T18:27:00.636Z,15.80
2023-05-02T18:29:27.581Z,15.90
2023-05-02T18:31:54.390Z,15.80
2023-05-02T18:34:21.128Z,15.90
2023-05-02T18:36:47.835Z,15.80
2023-05-02T18:39:14.585Z,15.90
2023-05-02T18:41:41.216Z,15.90
2023-05-02T18:44:10.042Z,15.90
2023-05-02T18:46:36.792Z,16.00
2023-05-02T18:49:03.497Z,16.10
2023-05-02T18:51:30.187Z,16.10
2023-05-02T18:53:58.900Z,16.10
2023-05-02T18:56:25.871Z,16.20
2023-05-02T18:58:56.573Z,16.20
2023-05-02T19:01:27.005Z,16.20
2023-05-02T19:03:54.290Z,16.10
2023-05-02T19:06:21.325Z,16.10
2023-05-02T19:08:48.751Z,16.10
2023-05-02T19:11:15.646Z,16.10
2023-05-02T19:13:42.354Z,16.10
2023-05-02T19:16:13.668Z,16.10
2023-05-02T19:18:43.466Z,16.10
2023-05-02T19:21:12.653Z,16.10
2023-05-02T19:23:41.810Z,16.10
2023-05-02T19:26:16.663Z,16.10
2023-05-02T19:28:44.228Z,16.10
2023-05-02T19:31:21.066Z,16.10
2023-05-02T19:33:54.754Z,16.10
2023-05-02T19:36:23.249Z,16.20
2023-05-02T19:38:51.965Z,16.10
2023-05-02T19:41:19.103Z,16.10
2023-05-02T19:43:46.071Z,16.10
2023-05-02T19:46:14.843Z,16.00
2023-05-02T19:48:41.805Z,15.90
2023-05-02T19:51:08.834Z,15.80
2023-05-02T19:53:37.373Z,15.70
2023-05-02T19:56:07.084Z,15.60
2023-05-02T19:58:34.029Z,15.50
2023-05-02T20:01:00.875Z,15.30
2023-05-02T20:03:27.658Z,15.30
2023-05-02T20:05:55.369Z,14.90
2023-05-02T20:08:26.235Z,14.60
2023-05-02T20:10:53.587Z,14.60
2023-05-02T20:13:22.533Z,14.70
2023-05-02T20:15:50.670Z,14.60
2023-05-02T20:18:17.412Z,14.60
2023-05-02T20:20:44.102Z,14.60
2023-05-02T20:23:10.844Z,14.70
2023-05-02T20:25:37.533Z,14.70
2023-05-02T20:28:04.285Z,14.70
2023-05-02T20:30:31.278Z,14.70
2023-05-02T20:33:10.646Z,14.70
2023-05-02T20:35:41.319Z,14.80
2023-05-02T20:38:08.095Z,14.80
2023-05-02T20:40:35.178Z,14.80
2023-05-02T20:43:02.060Z,14.80
2023-05-02T20:45:28.765Z,14.80
2023-05-02T20:47:55.476Z,14.90
2023-05-02T20:50:22.446Z,14.90
2023-05-02T20:52:49.200Z,15.00
2023-05-02T20:55:16.015Z,15.00
2023-05-02T20:57:42.658Z,15.00
2023-05-02T21:00:13.576Z,15.10
2023-05-02T21:02:40.985Z,15.10
2023-05-02T21:05:08.022Z,15.10
2023-05-02T21:07:34.728Z,15.10
2023-05-02T21:10:01.604Z,15.10
2023-05-02T21:12:28.518Z,15.10
2023-05-02T21:14:55.515Z,15.10
2023-05-02T21:17:22.231Z,15.10
2023-05-02T21:19:49.168Z,15.20
2023-05-02T21:22:15.910Z,15.10
2023-05-02T21:24:42.601Z,15.10
2023-05-02T21:27:09.266Z,15.00
2023-05-02T21:29:35.928Z,14.60
2023-05-02T21:32:02.805Z,14.30
2023-05-02T21:34:29.470Z,14.10
2023-05-02T21:36:56.129Z,13.80
2023-05-02T21:39:22.781Z,13.60
2023-05-02T21:41:49.535Z,13.40
2023-05-02T21:44:16.221Z,13.20
2023-05-02T21:46:42.935Z,12.90
2023-05-02T21:49:09.621Z,12.80
2023-05-02T21:51:38.946Z,12.80
2023-05-02T21:54:05.837Z,12.70
2023-05-02T21:56:32.505Z,12.70
2023-05-02T21:59:01.908Z,12.70
2023-05-02T22:01:28.872Z,12.50
2023-05-02T22:03:55.739Z,12.60
2023-05-02T22:06:22.435Z,12.70
2023-05-02T22:08:49.160Z,12.60
2023-05-02T22:11:15.962Z,12.50
2023-05-02T22:13:42.673Z,12.20
2023-05-02T22:16:09.725Z,12.30
2023-05-02T22:18:36.909Z,12.30
2023-05-02T22:21:03.770Z,12.40
2023-05-02T22:23:30.977Z,12.40
2023-05-02T22:25:58.103Z,12.50
2023-05-02T22:28:24.802Z,12.50
2023-05-02T22:30:51.522Z,12.40
2023-05-02T22:33:18.249Z,12.40
2023-05-02T22:35:44.981Z,12.40
2023-05-02T22:38:15.004Z,12.40
2023-05-02T22:40:41.635Z,12.40
2023-05-02T22:43:08.450Z,12.40
2023-05-02T22:45:36.516Z,12.60
2023-05-02T22:48:03.440Z,12.80
2023-05-02T22:50:30.201Z,12.90
2023-05-02T22:52:57.253Z,13.10
2023-05-02T22:55:24.216Z,13.20
2023-05-02T22:57:50.990Z,13.10
2023-05-02T23:00:17.721Z,13.20
2023-05-02T23:02:45.024Z,13.20
2023-05-02T23:05:12.109Z,13.30
2023-05-02T23:07:38.852Z,13.30
2023-05-02T23:10:06.411Z,13.40
2023-05-02T23:12:35.134Z,13.40
2023-05-02T23:15:02.146Z,13.50
2023-05-02T23:17:28.781Z,13.50
2023-05-02T23:19:55.480Z,13.50
2023-05-02T23:22:22.102Z,13.40
2023-05-02T23:24:48.775Z,13.40
2023-05-02T23:27:15.621Z,13.30
2023-05-02T23:29:42.410Z,13.40
2023-05-02T23:32:09.214Z,13.30
2023-05-02T23:34:36.558Z,13.10
2023-05-02T23:37:05.734Z,12.90
2023-05-02T23:39:34.591Z,12.50
2023-05-02T23:42:03.528Z,12.30
2023-05-02T23:44:31.177Z,12.30
2023-05-02T23:46:59.335Z,12.40
2023-05-02T23:49:26.685Z,12.60
2023-05-02T23:51:53.444Z,12.80
2023-05-02T23:54:20.065Z,12.90
2023-05-02T23:56:46.812Z,13.00
2023-05-02T23:59:16.536Z,13.00
